Butcher Island Helipad

IN-0046 · 马哈拉施特拉邦, 印度

罗盘
风向 的 风向 230° 直升机
风: 13 kt, 4 beaufort
0 ft 2.000 4.000 6.000 8.000 10.000
Cloud Cloud
FEW 1.000
Cloud Cloud Cloud Cloud
SCT 1.800
Cloud Cloud
FEW 3.000
Cloud Cloud Cloud Cloud Cloud Cloud Cloud Cloud
OVC 8.000
METAR VABB 230600Z 23013KT 2500 -RA FEW010 SCT018 FEW030CB OVC080 27/26 Q1005 TEMPO 1500 SHRA

METAR Butcher Island Helipad - IN-0046

Butcher Island Helipad是,印度中的直升机场。 该机场位于纬度18,96230和经度72,90308。 这个机场没有ICAO代码,我们使用IN-0046作为参考。 机场在Mumbai FIR中。

该航空气象观测是针对贾特拉帕蒂·希瓦吉国际机场在2024年7月23日 11:30, 当地时间进行的。

机场观察

风向为230°,速度为13 kt。

可见度为2,5 km。

有几云在1.000 ft的高度, 疏云,零星散落的云朵在1.800 ft的高度, 几云 积雨云在3.000 ft的高度 和 乌云密布在8.000 ft的高度。 破损或更高的上限为8.000 ft。

当前天气为光 雨。 温度和风寒是27 °C。 热指数为32。 露点为26 °C,相对湿度为94%。 海平面上的气压为1005 hPa (QNH)。

发展趋势

  • 暂时的

    可变方向的风很小或没有。 可见性变为1,5 km。 重大天气:阵雨 雨。

白天

今天,太阳从06:12升起,在19:17降落。 这适用于Butcher Island Helipad,世界夏令时可能有所不同。 当地时间与世界标准时间之间的时差为+5 小时 30 分钟。 夏令时目前正在进行中。

公司介绍

我们没有关于这个机场的公司信息。

体会

到Vliegles.nl去找飞行课程,跳伞和其他飞行体验。 浏览页面,了解Butcher Island Helipad附近所有可用的活动。 你也可以使用搜索功能来寻找你所在地附近的特定飞行课程、跳伞或其他飞行体验。

乌云

1.000 ft FEW 几云
1.800 ft SCT 疏云,零星散落的云朵
3.000 ft FEW 几云 积雨云
8.000 ft OVC 乌云密布

温度 & 天气

天气 光 雨
温度 27 °C
露点 26 °C
相对湿度 94%
热度指数 32 °C
Kp-index 0 (0-9)

白天

日出
06:12
中午
12:45
日落
19:17 (7:24)

小工具

你想在你的网站上有一个关于Butcher Island Helipad的当前航空天气(METAR)的小部件吗?

显示HTML代码
报告变更